createdAt,value
2022-11-14T00:00:53.732Z,0
2022-11-14T00:02:10.034Z,0
2022-11-14T00:03:26.324Z,0
2022-11-14T00:04:41.634Z,0
2022-11-14T00:05:57.919Z,0
2022-11-14T00:07:14.227Z,0
2022-11-14T00:08:30.506Z,0
2022-11-14T00:09:46.803Z,0
2022-11-14T00:11:03.100Z,0
2022-11-14T00:12:19.387Z,0
2022-11-14T00:13:35.678Z,0
2022-11-14T00:14:51.976Z,0
2022-11-14T00:16:08.271Z,0
2022-11-14T00:17:24.571Z,0
2022-11-14T00:18:40.855Z,0
2022-11-14T00:19:57.156Z,0
2022-11-14T00:21:12.461Z,0
2022-11-14T00:22:28.752Z,0
2022-11-14T00:23:45.044Z,0
2022-11-14T00:25:01.330Z,0
2022-11-14T00:26:17.623Z,0
2022-11-14T00:27:33.921Z,0
2022-11-14T00:28:50.220Z,0
2022-11-14T00:30:06.512Z,0
2022-11-14T00:31:22.800Z,0
2022-11-14T00:32:39.107Z,0
2022-11-14T00:33:55.401Z,0
2022-11-14T00:35:11.684Z,0
2022-11-14T00:36:27.981Z,0
2022-11-14T00:37:43.288Z,0
2022-11-14T00:38:59.584Z,0
2022-11-14T00:40:15.885Z,0
2022-11-14T00:41:32.159Z,0
2022-11-14T00:42:48.454Z,0
2022-11-14T00:44:04.754Z,0
2022-11-14T00:45:21.057Z,0
2022-11-14T00:46:37.344Z,0
2022-11-14T00:47:53.631Z,0
2022-11-14T00:49:09.936Z,0
2022-11-14T00:50:26.223Z,0
2022-11-14T00:51:42.504Z,0
2022-11-14T00:52:58.809Z,0
2022-11-14T00:54:14.111Z,0
2022-11-14T00:55:30.421Z,0
2022-11-14T00:56:46.697Z,0
2022-11-14T00:58:02.993Z,0
2022-11-14T00:59:19.282Z,0
2022-11-14T01:00:35.577Z,0
2022-11-14T01:01:51.886Z,0
2022-11-14T01:03:08.162Z,0
2022-11-14T01:04:24.460Z,0
2022-11-14T01:05:40.767Z,0
2022-11-14T01:06:57.048Z,0
2022-11-14T01:08:13.338Z,0
2022-11-14T01:09:29.632Z,0
2022-11-14T01:10:44.939Z,0
2022-11-14T01:12:01.228Z,0
2022-11-14T01:13:17.524Z,0
2022-11-14T01:14:33.819Z,0
2022-11-14T01:15:50.117Z,0
2022-11-14T01:17:06.422Z,0
2022-11-14T01:18:22.714Z,0
2022-11-14T01:19:39.001Z,0
2022-11-14T01:20:55.300Z,0
2022-11-14T01:22:11.575Z,0
2022-11-14T01:23:27.882Z,0
2022-11-14T01:24:44.173Z,0
2022-11-14T01:26:00.464Z,0
2022-11-14T01:27:15.773Z,0
2022-11-14T01:28:32.062Z,0
2022-11-14T01:29:48.359Z,0
2022-11-14T01:31:04.650Z,0
2022-11-14T01:32:20.941Z,0
2022-11-14T01:33:37.247Z,0
2022-11-14T01:34:53.529Z,0
2022-11-14T01:36:09.822Z,0
2022-11-14T01:37:26.120Z,0
2022-11-14T01:38:42.417Z,0
2022-11-14T01:39:58.708Z,0
2022-11-14T01:41:15.002Z,0
2022-11-14T01:42:31.293Z,0
2022-11-14T01:43:46.613Z,0
2022-11-14T01:45:02.906Z,0
2022-11-14T01:46:19.190Z,0
2022-11-14T01:47:35.475Z,0
2022-11-14T01:48:51.771Z,0
2022-11-14T01:50:08.064Z,0
2022-11-14T01:51:24.367Z,0
2022-11-14T01:52:40.659Z,0
2022-11-14T01:53:56.944Z,0
2022-11-14T01:55:13.235Z,0
2022-11-14T01:56:29.534Z,0
2022-11-14T01:57:45.833Z,0
2022-11-14T01:59:02.115Z,0
2022-11-14T02:00:17.437Z,0
2022-11-14T02:01:33.728Z,0
2022-11-14T02:02:50.019Z,0
2022-11-14T02:04:06.317Z,0
2022-11-14T02:05:22.612Z,0
2022-11-14T02:06:38.907Z,0
2022-11-14T02:09:11.445Z,0
2022-11-14T02:10:27.751Z,0
2022-11-14T02:11:44.041Z,0
2022-11-14T02:13:00.339Z,0
2022-11-14T02:14:16.614Z,0
2022-11-14T02:15:32.923Z,0
2022-11-14T02:16:48.229Z,0
2022-11-14T02:18:04.514Z,0
2022-11-14T02:19:20.815Z,0
2022-11-14T02:20:37.107Z,0
2022-11-14T02:21:53.402Z,0
2022-11-14T02:23:09.697Z,0
2022-11-14T02:24:25.978Z,0
2022-11-14T02:25:42.272Z,0
2022-11-14T02:26:58.562Z,0
2022-11-14T02:28:14.857Z,0
2022-11-14T02:29:31.147Z,0
2022-11-14T02:30:47.444Z,0
2022-11-14T02:32:03.739Z,0
2022-11-14T02:33:19.060Z,0
2022-11-14T02:34:35.343Z,0
2022-11-14T02:35:51.649Z,0
2022-11-14T02:37:07.931Z,0
2022-11-14T02:38:24.229Z,0
2022-11-14T02:39:40.529Z,0
2022-11-14T02:40:56.811Z,0
2022-11-14T02:42:13.108Z,0
2022-11-14T02:43:29.406Z,0
2022-11-14T02:44:45.697Z,0
2022-11-14T02:46:01.992Z,0
2022-11-14T02:47:18.270Z,0
2022-11-14T02:48:34.580Z,0
2022-11-14T02:49:49.889Z,0
2022-11-14T02:51:06.177Z,0
2022-11-14T02:52:22.464Z,0
2022-11-14T02:53:38.771Z,0
2022-11-14T02:54:55.058Z,0
2022-11-14T02:56:11.353Z,0
2022-11-14T02:57:27.633Z,0
2022-11-14T02:58:43.940Z,0
2022-11-14T03:00:00.230Z,0
2022-11-14T03:01:16.511Z,0
2022-11-14T03:02:32.807Z,0
2022-11-14T03:03:49.103Z,0
2022-11-14T03:05:05.398Z,0
2022-11-14T03:06:20.706Z,0
2022-11-14T03:07:36.996Z,0
2022-11-14T03:08:53.302Z,0
2022-11-14T03:10:09.594Z,0
2022-11-14T03:11:25.891Z,0
2022-11-14T03:12:42.173Z,0
2022-11-14T03:13:57.486Z,0
2022-11-14T03:15:13.788Z,0
2022-11-14T03:16:30.067Z,0
2022-11-14T03:17:46.359Z,0
2022-11-14T03:19:02.653Z,0
2022-11-14T03:20:18.949Z,0
2022-11-14T03:21:35.258Z,0
2022-11-14T03:22:51.550Z,0
2022-11-14T03:24:07.835Z,0
2022-11-14T03:25:24.128Z,0
2022-11-14T03:26:40.430Z,0
2022-11-14T03:27:56.710Z,0
2022-11-14T03:29:13.014Z,0
2022-11-14T03:30:28.313Z,0
2022-11-14T03:31:44.612Z,0
2022-11-14T03:33:00.898Z,0
2022-11-14T03:34:17.195Z,0
2022-11-14T03:35:33.484Z,0
2022-11-14T03:36:49.777Z,0
2022-11-14T03:38:06.077Z,0
2022-11-14T03:39:22.358Z,0
2022-11-14T03:40:38.653Z,0
2022-11-14T03:41:54.959Z,0
2022-11-14T03:43:11.245Z,0
2022-11-14T03:44:27.546Z,0
2022-11-14T03:45:43.834Z,0
2022-11-14T03:46:59.144Z,0
2022-11-14T03:48:15.433Z,0
2022-11-14T03:49:31.730Z,0
2022-11-14T03:50:48.033Z,0
2022-11-14T03:52:04.315Z,0
2022-11-14T03:53:20.613Z,0
2022-11-14T03:54:36.896Z,0
2022-11-14T03:55:53.188Z,0
2022-11-14T03:57:09.496Z,0
2022-11-14T03:58:25.773Z,0
2022-11-14T03:59:42.078Z,0
2022-11-14T04:00:58.370Z,0
2022-11-14T04:02:14.655Z,0
2022-11-14T04:03:29.975Z,0
2022-11-14T04:04:46.271Z,0
2022-11-14T04:06:02.559Z,0
2022-11-14T04:07:18.849Z,0
2022-11-14T04:08:35.153Z,0
2022-11-14T04:09:51.446Z,0
2022-11-14T04:11:07.738Z,0
2022-11-14T04:12:24.016Z,0
2022-11-14T04:13:40.319Z,0
2022-11-14T04:14:56.610Z,0
2022-11-14T04:16:12.911Z,0
2022-11-14T04:17:29.209Z,0
2022-11-14T04:18:45.494Z,0
2022-11-14T04:20:00.794Z,0
2022-11-14T04:21:17.095Z,0
2022-11-14T04:22:33.382Z,0
2022-11-14T04:23:49.684Z,0
2022-11-14T04:25:05.978Z,0
2022-11-14T04:26:22.266Z,0
2022-11-14T04:27:38.561Z,0
2022-11-14T04:28:54.864Z,0
2022-11-14T04:30:11.143Z,0
2022-11-14T04:31:27.449Z,0
2022-11-14T04:32:43.735Z,0
2022-11-14T04:34:00.023Z,0
2022-11-14T04:35:16.330Z,0
2022-11-14T04:36:31.644Z,0
2022-11-14T04:37:47.920Z,0
2022-11-14T04:39:04.216Z,0
2022-11-14T04:40:20.516Z,0
2022-11-14T04:41:36.807Z,0
2022-11-14T04:42:53.112Z,0
2022-11-14T04:44:09.405Z,0
2022-11-14T04:45:25.680Z,0
2022-11-14T04:46:41.973Z,0
2022-11-14T04:47:58.274Z,0
2022-11-14T04:49:14.578Z,0
2022-11-14T04:50:30.856Z,0
2022-11-14T04:51:47.164Z,0
2022-11-14T04:53:02.455Z,0
2022-11-14T04:54:18.749Z,0
2022-11-14T04:55:35.044Z,0
2022-11-14T04:56:51.349Z,0
2022-11-14T04:58:07.648Z,0
2022-11-14T04:59:23.925Z,0
2022-11-14T05:00:40.223Z,0
2022-11-14T05:01:56.514Z,0
2022-11-14T05:03:12.816Z,0
2022-11-14T05:04:29.107Z,0
2022-11-14T05:05:45.398Z,0
2022-11-14T05:07:01.693Z,0
2022-11-14T05:08:17.974Z,0
2022-11-14T05:09:33.296Z,0
2022-11-14T05:10:49.590Z,0
2022-11-14T05:12:05.881Z,0
2022-11-14T05:13:22.176Z,0
2022-11-14T05:14:38.461Z,0
2022-11-14T05:15:54.762Z,0
2022-11-14T05:17:11.051Z,0
2022-11-14T05:18:27.351Z,0
2022-11-14T05:19:43.634Z,0
2022-11-14T05:20:59.941Z,0
2022-11-14T05:22:16.222Z,0
2022-11-14T05:23:32.520Z,0
2022-11-14T05:24:48.806Z,0
2022-11-14T05:26:04.133Z,0
2022-11-14T05:27:20.424Z,0
2022-11-14T05:28:36.719Z,0
2022-11-14T05:29:53.014Z,0
2022-11-14T05:31:09.303Z,0
2022-11-14T05:32:25.598Z,0
2022-11-14T05:33:41.882Z,0
2022-11-14T05:34:58.184Z,0
2022-11-14T05:36:14.476Z,0
2022-11-14T05:37:30.767Z,0
2022-11-14T05:38:47.065Z,0
2022-11-14T05:40:03.357Z,0
2022-11-14T05:41:19.654Z,0
2022-11-14T05:42:34.952Z,0
2022-11-14T05:43:51.242Z,0
2022-11-14T05:45:07.488Z,1
2022-11-14T05:46:23.778Z,0
2022-11-14T05:47:40.025Z,1
2022-11-14T05:48:56.276Z,1
2022-11-14T05:50:12.515Z,1
2022-11-14T05:51:28.809Z,0
2022-11-14T05:52:45.095Z,0
2022-11-14T05:54:01.399Z,0
2022-11-14T05:55:17.642Z,1
2022-11-14T05:56:33.889Z,2
2022-11-14T05:57:50.135Z,1
2022-11-14T05:59:05.375Z,3
2022-11-14T06:00:21.627Z,1
2022-11-14T06:01:37.853Z,4
2022-11-14T06:02:54.110Z,2
2022-11-14T06:04:10.351Z,2
2022-11-14T06:05:26.587Z,2
2022-11-14T06:06:42.823Z,3
2022-11-14T06:07:59.049Z,7
2022-11-14T06:09:15.295Z,12
2022-11-14T06:10:31.530Z,10
2022-11-14T06:11:47.778Z,15
2022-11-14T06:13:04.012Z,14
2022-11-14T06:14:20.244Z,19
2022-11-14T06:15:35.509Z,23
2022-11-14T06:16:51.757Z,28
2022-11-14T06:18:07.994Z,38
2022-11-14T06:19:24.230Z,42
2022-11-14T06:20:40.476Z,44
2022-11-14T06:21:56.711Z,51
2022-11-14T06:23:12.941Z,60
2022-11-14T06:24:29.182Z,66
2022-11-14T06:25:45.418Z,77
2022-11-14T06:27:01.662Z,83
2022-11-14T06:28:17.902Z,92
2022-11-14T06:29:34.151Z,106
2022-11-14T06:30:50.372Z,112
2022-11-14T06:32:05.629Z,121
2022-11-14T06:33:21.870Z,136
2022-11-14T06:34:38.109Z,145
2022-11-14T06:35:54.356Z,155
2022-11-14T06:37:10.601Z,172
2022-11-14T06:38:26.843Z,181
2022-11-14T06:39:43.076Z,193
2022-11-14T06:40:59.303Z,207
2022-11-14T06:42:15.561Z,224
2022-11-14T06:43:31.781Z,239
2022-11-14T06:44:48.038Z,251
2022-11-14T06:46:04.259Z,270
2022-11-14T06:47:20.509Z,284
2022-11-14T06:48:35.772Z,302
2022-11-14T06:49:52.005Z,318
2022-11-14T06:51:08.233Z,333
2022-11-14T06:52:24.490Z,349
2022-11-14T06:53:40.718Z,372
2022-11-14T06:54:56.968Z,397
2022-11-14T06:56:13.205Z,418
2022-11-14T06:57:29.000Z,434
2022-11-14T06:58:45.668Z,451
2022-11-14T07:00:01.927Z,467
2022-11-14T07:01:18.152Z,490
2022-11-14T07:02:34.389Z,511
2022-11-14T07:03:50.631Z,528
2022-11-14T07:05:05.888Z,544
2022-11-14T07:06:22.131Z,564
2022-11-14T07:07:38.360Z,588
2022-11-14T07:08:54.614Z,611
2022-11-14T07:10:10.838Z,625
2022-11-14T07:11:27.077Z,651
2022-11-14T07:12:43.320Z,669
2022-11-14T07:13:59.570Z,681
2022-11-14T07:15:15.798Z,699
2022-11-14T07:16:32.037Z,719
2022-11-14T07:17:48.276Z,752
2022-11-14T07:19:04.527Z,772
2022-11-14T07:20:20.771Z,801
2022-11-14T07:21:36.010Z,823
2022-11-14T07:22:52.255Z,828
2022-11-14T07:24:08.505Z,859
2022-11-14T07:25:24.723Z,884
2022-11-14T07:26:40.977Z,901
2022-11-14T07:27:57.216Z,914
2022-11-14T07:29:12.465Z,935
2022-11-14T07:30:28.720Z,955
2022-11-14T07:31:44.950Z,987
2022-11-14T07:33:01.191Z,993
2022-11-14T07:34:17.427Z,1022
2022-11-14T07:35:33.674Z,1035
2022-11-14T07:36:49.898Z,1054
2022-11-14T07:38:06.144Z,1063
2022-11-14T07:39:22.383Z,1080
2022-11-14T07:40:38.616Z,1104
2022-11-14T07:41:54.864Z,1122
2022-11-14T07:43:11.092Z,1131
2022-11-14T07:44:27.338Z,1154
2022-11-14T07:45:43.698Z,1171
2022-11-14T07:46:59.948Z,1186
2022-11-14T07:48:16.180Z,1205
2022-11-14T07:49:32.419Z,1226
2022-11-14T07:50:48.649Z,1236
2022-11-14T07:52:04.891Z,1257
2022-11-14T07:53:21.129Z,1285
2022-11-14T07:54:37.385Z,1322
2022-11-14T07:55:53.616Z,1311
2022-11-14T07:57:09.858Z,1337
2022-11-14T07:58:26.102Z,1346
2022-11-14T07:59:42.327Z,1371
2022-11-14T08:00:58.576Z,1396
2022-11-14T08:02:13.826Z,1405
2022-11-14T08:03:30.060Z,1417
2022-11-14T08:04:46.301Z,1439
2022-11-14T08:06:02.537Z,1448
2022-11-14T08:07:18.778Z,1473
2022-11-14T08:08:35.034Z,1473
2022-11-14T08:09:51.264Z,1500
2022-11-14T08:11:07.496Z,1501
2022-11-14T08:12:23.736Z,1508
2022-11-14T08:13:39.979Z,1533
2022-11-14T08:14:56.227Z,1533
2022-11-14T08:16:12.456Z,1559
2022-11-14T08:17:28.693Z,1581
2022-11-14T08:18:43.956Z,1604
2022-11-14T08:20:00.201Z,1586
2022-11-14T08:21:16.440Z,5252
2022-11-14T08:22:32.684Z,3125
2022-11-14T08:23:48.923Z,9936
2022-11-14T08:25:05.167Z,9761
2022-11-14T08:26:21.399Z,11440
2022-11-14T08:27:37.644Z,12384
2022-11-14T08:28:53.885Z,13130
2022-11-14T08:30:10.116Z,11420
2022-11-14T08:31:26.365Z,10483
2022-11-14T08:32:42.601Z,12109
2022-11-14T08:33:58.842Z,13572
2022-11-14T08:35:14.080Z,14440
2022-11-14T08:36:30.330Z,11500
2022-11-14T08:37:46.571Z,7237
2022-11-14T08:39:02.807Z,80560
2022-11-14T08:40:19.044Z,77514
2022-11-14T08:41:35.279Z,19772
2022-11-14T08:42:51.514Z,20121
2022-11-14T08:44:07.755Z,75370
2022-11-14T08:45:23.989Z,25832
2022-11-14T08:46:40.241Z,18451
2022-11-14T08:47:56.473Z,17993
2022-11-14T08:49:12.711Z,18712
2022-11-14T08:50:28.953Z,16626
2022-11-14T08:51:44.196Z,27596
2022-11-14T08:53:00.438Z,22107
2022-11-14T08:54:16.682Z,15221
2022-11-14T08:55:32.931Z,11015
2022-11-14T08:56:49.164Z,10002
2022-11-14T08:58:05.404Z,8806
2022-11-14T08:59:21.633Z,9844
2022-11-14T09:00:37.883Z,15165
2022-11-14T09:01:54.106Z,15128
2022-11-14T09:03:10.349Z,14091
2022-11-14T09:04:26.590Z,13732
2022-11-14T09:05:42.835Z,12597
2022-11-14T09:06:59.056Z,9676
2022-11-14T09:08:14.319Z,8473
2022-11-14T09:09:30.557Z,8927
2022-11-14T09:10:46.793Z,9116
2022-11-14T09:12:03.035Z,8554
2022-11-14T09:13:19.283Z,7467
2022-11-14T09:14:35.507Z,7985
2022-11-14T09:15:51.752Z,8518
2022-11-14T09:17:07.981Z,7372
2022-11-14T09:18:24.233Z,13722
2022-11-14T09:19:40.461Z,11018
2022-11-14T09:20:56.695Z,9633
2022-11-14T09:22:12.935Z,78466
2022-11-14T09:23:29.192Z,78977
2022-11-14T09:24:44.432Z,82426
2022-11-14T09:26:00.680Z,80207
2022-11-14T09:27:16.922Z,78811
2022-11-14T09:28:33.142Z,80009
2022-11-14T09:29:49.387Z,80838
2022-11-14T09:31:05.636Z,78898
2022-11-14T09:32:21.862Z,81069
2022-11-14T09:33:38.100Z,73605
2022-11-14T09:34:54.348Z,27150
2022-11-14T09:36:10.581Z,11537
2022-11-14T09:37:26.817Z,4548
2022-11-14T09:38:43.058Z,2742
2022-11-14T09:39:59.303Z,2737
2022-11-14T09:41:14.558Z,2744
2022-11-14T09:42:30.790Z,2756
2022-11-14T09:43:47.032Z,2754
2022-11-14T09:45:03.262Z,2741
2022-11-14T09:46:19.508Z,2734
2022-11-14T09:47:35.743Z,2761
2022-11-14T09:48:51.989Z,2786
2022-11-14T09:50:08.214Z,2804
2022-11-14T09:51:24.452Z,2821
2022-11-14T09:52:40.701Z,2831
2022-11-14T09:53:56.932Z,2851
2022-11-14T09:55:13.166Z,2870
2022-11-14T09:56:29.408Z,2883
2022-11-14T09:57:44.675Z,2906
2022-11-14T09:59:00.910Z,2933
2022-11-14T10:00:17.141Z,2905
2022-11-14T10:01:33.387Z,2891
2022-11-14T10:02:49.615Z,2900
2022-11-14T10:04:05.863Z,2887
2022-11-14T10:05:22.098Z,2867
2022-11-14T10:06:38.347Z,2857
2022-11-14T10:07:54.574Z,2849
2022-11-14T10:09:10.812Z,2851
2022-11-14T10:10:27.061Z,2876
2022-11-14T10:11:43.298Z,2898
2022-11-14T10:12:59.526Z,2918
2022-11-14T10:14:14.784Z,2937
2022-11-14T10:15:31.034Z,2927
2022-11-14T10:16:47.268Z,2909
2022-11-14T10:18:03.499Z,2923
2022-11-14T10:19:19.739Z,2974
2022-11-14T10:20:35.984Z,2879
2022-11-14T10:21:52.228Z,2847
2022-11-14T10:23:08.445Z,2897
2022-11-14T10:24:24.694Z,2946
2022-11-14T10:25:40.924Z,1407
2022-11-14T10:26:57.170Z,6743
2022-11-14T10:28:13.411Z,82012
2022-11-14T10:29:29.000Z,81265
2022-11-14T10:30:44.909Z,79103
2022-11-14T10:32:01.144Z,81143
2022-11-14T10:33:17.389Z,85319
2022-11-14T10:34:33.621Z,85127
2022-11-14T10:35:49.858Z,85069
2022-11-14T10:37:06.093Z,83373
2022-11-14T10:38:22.332Z,71669
2022-11-14T10:39:38.578Z,27695
2022-11-14T10:40:54.815Z,16161
2022-11-14T10:42:11.051Z,5099
2022-11-14T10:43:27.293Z,9460
2022-11-14T10:44:43.523Z,80119
2022-11-14T10:45:59.771Z,81979
2022-11-14T10:47:15.029Z,82759
2022-11-14T10:48:31.250Z,81896
2022-11-14T10:49:47.503Z,82033
2022-11-14T10:51:03.726Z,82198
2022-11-14T10:52:19.967Z,83699
2022-11-14T10:53:36.204Z,83037
2022-11-14T10:54:52.446Z,82643
2022-11-14T10:56:08.699Z,78607
2022-11-14T10:57:24.922Z,67636
2022-11-14T10:58:41.159Z,14202
2022-11-14T10:59:57.403Z,3951
2022-11-14T11:01:13.644Z,2970
2022-11-14T11:03:46.122Z,2964
2022-11-14T11:05:01.379Z,2962
2022-11-14T11:06:17.621Z,2959
2022-11-14T11:07:33.856Z,2947
2022-11-14T11:08:50.082Z,2943
2022-11-14T11:10:06.319Z,2969
2022-11-14T11:11:22.557Z,2990
2022-11-14T11:12:38.801Z,2985
2022-11-14T11:13:55.040Z,2985
2022-11-14T11:15:11.277Z,2986
2022-11-14T11:16:27.528Z,2975
2022-11-14T11:17:43.749Z,2969
2022-11-14T11:19:00.004Z,2952
2022-11-14T11:20:16.230Z,2973
2022-11-14T11:21:31.489Z,1387
2022-11-14T11:22:47.719Z,5277
2022-11-14T11:24:03.969Z,82680
2022-11-14T11:25:20.207Z,82076
2022-11-14T11:26:36.447Z,82973
2022-11-14T11:27:52.688Z,82526
2022-11-14T11:29:08.921Z,81291
2022-11-14T11:30:25.158Z,82338
2022-11-14T11:31:41.393Z,83807
2022-11-14T11:32:57.629Z,82412
2022-11-14T11:34:13.877Z,80778
2022-11-14T11:35:30.116Z,80603
2022-11-14T11:36:46.343Z,80879
2022-11-14T11:38:01.597Z,68842
2022-11-14T11:39:17.842Z,25875
2022-11-14T11:40:34.081Z,17101
2022-11-14T11:41:50.311Z,6487
2022-11-14T11:43:06.548Z,18922
2022-11-14T11:44:21.827Z,80822
2022-11-14T11:45:38.056Z,80313
2022-11-14T11:46:54.296Z,78858
2022-11-14T11:48:10.536Z,81782
2022-11-14T11:49:26.762Z,83706
2022-11-14T11:50:43.016Z,83690
2022-11-14T11:51:59.251Z,82104
2022-11-14T11:53:15.496Z,81564
2022-11-14T11:54:31.733Z,83090
2022-11-14T11:55:47.965Z,78681
2022-11-14T11:57:04.207Z,65690
2022-11-14T11:58:20.451Z,21342
2022-11-14T11:59:36.676Z,14234
2022-11-14T12:00:51.936Z,6196
2022-11-14T12:02:08.172Z,13239
2022-11-14T12:03:24.404Z,84345
2022-11-14T12:04:40.646Z,82397
2022-11-14T12:05:56.880Z,81032
2022-11-14T12:07:13.133Z,79904
2022-11-14T12:08:29.376Z,82362
2022-11-14T12:09:45.602Z,82850
2022-11-14T12:11:01.842Z,83921
2022-11-14T12:12:18.081Z,82673
2022-11-14T12:13:34.323Z,75340
2022-11-14T12:14:50.564Z,63149
2022-11-14T12:16:06.790Z,19265
2022-11-14T12:17:22.053Z,6096
2022-11-14T12:18:38.299Z,7916
2022-11-14T12:19:54.531Z,78572
2022-11-14T12:21:10.774Z,78927
2022-11-14T12:22:26.997Z,78868
2022-11-14T12:23:43.243Z,79546
2022-11-14T12:24:59.477Z,80065
2022-11-14T12:26:15.715Z,80502
2022-11-14T12:27:31.957Z,81234
2022-11-14T12:28:48.196Z,79707
2022-11-14T12:30:04.437Z,71308
2022-11-14T12:31:20.671Z,27852
2022-11-14T12:32:36.913Z,15563
2022-11-14T12:33:52.175Z,4411
2022-11-14T12:35:08.406Z,9223
2022-11-14T12:36:24.657Z,75720
2022-11-14T12:37:40.892Z,73345
2022-11-14T12:38:57.125Z,24183
2022-11-14T12:40:13.356Z,25289
2022-11-14T12:41:29.607Z,20138
2022-11-14T12:42:45.850Z,19075
2022-11-14T12:44:02.077Z,17441
2022-11-14T12:45:18.313Z,14063
2022-11-14T12:47:50.806Z,11807
2022-11-14T12:49:07.026Z,12042
2022-11-14T12:50:22.297Z,12992
2022-11-14T12:51:38.520Z,15054
2022-11-14T12:52:54.764Z,15691
2022-11-14T12:54:10.996Z,16963
2022-11-14T12:55:27.240Z,16417
2022-11-14T12:56:43.473Z,15150
2022-11-14T12:57:59.712Z,23037
2022-11-14T12:59:15.968Z,11067
2022-11-14T13:00:32.208Z,5392
2022-11-14T13:01:48.431Z,3932
2022-11-14T13:03:04.671Z,3543
2022-11-14T13:04:20.923Z,7364
2022-11-14T13:05:37.155Z,26852
2022-11-14T13:06:52.398Z,21404
2022-11-14T13:08:08.652Z,22497
2022-11-14T13:09:24.885Z,20300
2022-11-14T13:10:41.114Z,16638
2022-11-14T13:11:57.361Z,20682
2022-11-14T13:13:13.596Z,24575
2022-11-14T13:14:29.833Z,27210
2022-11-14T13:15:46.080Z,15743
2022-11-14T13:17:02.309Z,8502
2022-11-14T13:18:18.564Z,10420
2022-11-14T13:19:34.797Z,8888
2022-11-14T13:20:51.033Z,5850
2022-11-14T13:22:07.278Z,4295
2022-11-14T13:23:22.532Z,1988
2022-11-14T13:24:38.764Z,937
2022-11-14T13:25:55.010Z,4431
2022-11-14T13:27:11.246Z,3021
2022-11-14T13:28:27.486Z,1287
2022-11-14T13:29:43.726Z,1593
2022-11-14T13:30:59.964Z,5764
2022-11-14T13:32:16.201Z,8600
2022-11-14T13:33:32.429Z,11220
2022-11-14T13:34:48.675Z,4835
2022-11-14T13:36:04.911Z,1705
2022-11-14T13:37:21.154Z,2223
2022-11-14T13:38:37.376Z,4717
2022-11-14T13:39:52.643Z,8618
2022-11-14T13:41:08.875Z,2188
2022-11-14T13:42:25.112Z,2977
2022-11-14T13:43:41.356Z,11535
2022-11-14T13:44:57.595Z,6005
2022-11-14T13:46:13.836Z,5084
2022-11-14T13:47:30.067Z,1707
2022-11-14T13:48:46.309Z,3140
2022-11-14T13:50:02.546Z,1755
2022-11-14T13:51:18.779Z,1138
2022-11-14T13:52:35.031Z,1355
2022-11-14T13:53:51.274Z,1000
2022-11-14T13:55:07.503Z,1518
2022-11-14T13:56:22.764Z,1417
2022-11-14T13:57:39.004Z,912
2022-11-14T13:58:55.244Z,896
2022-11-14T14:00:11.479Z,1853
2022-11-14T14:01:27.711Z,2061
2022-11-14T14:02:43.958Z,2665
2022-11-14T14:04:00.177Z,3765
2022-11-14T14:05:16.422Z,10059
2022-11-14T14:06:32.674Z,6848
2022-11-14T14:07:48.906Z,5315
2022-11-14T14:09:05.147Z,2123
2022-11-14T14:10:21.373Z,1380
2022-11-14T14:11:37.612Z,997
2022-11-14T14:12:52.867Z,973
2022-11-14T14:14:09.112Z,717
2022-11-14T14:15:25.357Z,5430
2022-11-14T14:16:41.597Z,2488
2022-11-14T14:17:57.826Z,1143
2022-11-14T14:19:14.070Z,996
2022-11-14T14:20:30.303Z,711
2022-11-14T14:21:46.552Z,2623
2022-11-14T14:23:02.791Z,5197
2022-11-14T14:24:19.034Z,2438
2022-11-14T14:25:35.279Z,862
2022-11-14T14:26:51.506Z,719
2022-11-14T14:28:07.751Z,2537
2022-11-14T14:29:22.999Z,1430
2022-11-14T14:30:39.235Z,1221
2022-11-14T14:31:55.470Z,2696
2022-11-14T14:33:11.710Z,1232
2022-11-14T14:34:27.954Z,1178
2022-11-14T14:35:44.185Z,1134
2022-11-14T14:37:00.424Z,1085
2022-11-14T14:38:16.666Z,1023
2022-11-14T14:39:32.907Z,966
2022-11-14T14:40:49.138Z,922
2022-11-14T14:42:05.392Z,746
2022-11-14T14:43:21.617Z,811
2022-11-14T14:44:37.865Z,766
2022-11-14T14:45:53.117Z,908
2022-11-14T14:47:09.355Z,633
2022-11-14T14:48:25.602Z,671
2022-11-14T14:49:41.839Z,814
2022-11-14T14:50:58.081Z,693
2022-11-14T14:52:14.303Z,791
2022-11-14T14:53:30.539Z,602
2022-11-14T14:54:46.777Z,553
2022-11-14T14:56:03.023Z,534
2022-11-14T14:57:19.274Z,504
2022-11-14T14:58:35.501Z,485
2022-11-14T14:59:51.739Z,475
2022-11-14T15:01:07.972Z,463
2022-11-14T15:02:23.232Z,434
2022-11-14T15:03:39.469Z,397
2022-11-14T15:04:55.702Z,368
2022-11-14T15:06:11.943Z,334
2022-11-14T15:07:28.193Z,302
2022-11-14T15:08:44.423Z,282
2022-11-14T15:10:00.673Z,268
2022-11-14T15:11:16.900Z,258
2022-11-14T15:12:33.132Z,247
2022-11-14T15:13:49.376Z,233
2022-11-14T15:15:05.621Z,215
2022-11-14T15:16:21.859Z,199
2022-11-14T15:17:38.092Z,181
2022-11-14T15:18:53.343Z,162
2022-11-14T15:20:09.587Z,148
2022-11-14T15:21:25.828Z,136
2022-11-14T15:22:42.076Z,120
2022-11-14T15:23:58.297Z,109
2022-11-14T15:25:14.552Z,94
2022-11-14T15:26:30.790Z,83
2022-11-14T15:27:47.023Z,71
2022-11-14T15:29:03.257Z,56
2022-11-14T15:30:19.507Z,53
2022-11-14T15:31:35.735Z,49
2022-11-14T15:32:51.973Z,41
2022-11-14T15:34:08.209Z,48
2022-11-14T15:35:23.472Z,48
2022-11-14T15:36:39.709Z,46
2022-11-14T15:37:55.940Z,35
2022-11-14T15:39:12.179Z,28
2022-11-14T15:40:28.423Z,20
2022-11-14T15:41:44.662Z,15
2022-11-14T15:43:00.891Z,16
2022-11-14T15:44:17.144Z,11
2022-11-14T15:45:33.379Z,11
2022-11-14T15:46:49.614Z,6
2022-11-14T15:48:05.852Z,3
2022-11-14T15:49:22.101Z,6
2022-11-14T15:50:38.341Z,7
2022-11-14T15:51:53.593Z,3
2022-11-14T15:53:09.835Z,3
2022-11-14T15:54:26.061Z,2
2022-11-14T15:55:42.300Z,2
2022-11-14T15:56:58.540Z,2
2022-11-14T15:58:14.775Z,1
2022-11-14T15:59:30.034Z,1
2022-11-14T16:00:46.285Z,1
2022-11-14T16:02:02.568Z,0
2022-11-14T16:03:18.867Z,0
2022-11-14T16:04:35.166Z,0
2022-11-14T16:05:51.440Z,0
2022-11-14T16:07:07.732Z,0
2022-11-14T16:09:40.335Z,0
2022-11-14T16:10:56.626Z,0
2022-11-14T16:12:12.923Z,0
2022-11-14T16:13:29.212Z,0
2022-11-14T16:14:45.494Z,0
2022-11-14T16:16:00.806Z,0
2022-11-14T16:17:17.102Z,0
2022-11-14T16:18:33.392Z,0
2022-11-14T16:19:49.677Z,0
2022-11-14T16:21:05.982Z,0
2022-11-14T16:22:22.278Z,0
2022-11-14T16:23:38.556Z,0
2022-11-14T16:24:54.850Z,0
2022-11-14T16:26:11.145Z,0
2022-11-14T16:27:27.433Z,0
2022-11-14T16:28:43.729Z,0
2022-11-14T16:30:00.023Z,0
2022-11-14T16:31:16.311Z,0
2022-11-14T16:32:31.635Z,0
2022-11-14T16:33:47.911Z,0
2022-11-14T16:35:04.205Z,0
2022-11-14T16:36:20.504Z,0
2022-11-14T16:37:36.803Z,0
2022-11-14T16:38:53.096Z,0
2022-11-14T16:40:09.377Z,0
2022-11-14T16:41:25.671Z,0
2022-11-14T16:42:41.964Z,0
2022-11-14T16:43:58.259Z,0
2022-11-14T16:45:14.554Z,0
2022-11-14T16:46:30.847Z,0
2022-11-14T16:47:47.142Z,0
2022-11-14T16:49:02.451Z,0
2022-11-14T16:50:18.741Z,0
2022-11-14T16:51:35.027Z,0
2022-11-14T16:52:51.333Z,0
2022-11-14T16:54:07.621Z,0
2022-11-14T16:56:40.210Z,0
2022-11-14T16:57:56.501Z,0
2022-11-14T16:59:12.785Z,0
2022-11-14T17:00:29.075Z,0
2022-11-14T17:01:45.376Z,0
2022-11-14T17:03:01.667Z,0
2022-11-14T17:04:17.970Z,0
2022-11-14T17:05:33.270Z,0
2022-11-14T17:06:49.566Z,0
2022-11-14T17:08:05.861Z,0
2022-11-14T17:09:22.160Z,0
2022-11-14T17:10:38.441Z,0
2022-11-14T17:11:54.730Z,0
2022-11-14T17:13:11.039Z,0
2022-11-14T17:14:27.321Z,0
2022-11-14T17:15:43.614Z,0
2022-11-14T17:16:59.907Z,0
2022-11-14T17:18:16.197Z,0
2022-11-14T17:19:32.495Z,0
2022-11-14T17:20:48.788Z,0
2022-11-14T17:22:04.103Z,0
2022-11-14T17:23:20.395Z,0
2022-11-14T17:24:36.676Z,0
2022-11-14T17:25:52.980Z,0
2022-11-14T17:27:09.265Z,0
2022-11-14T17:28:25.550Z,0
2022-11-14T17:29:41.850Z,0
2022-11-14T17:30:58.144Z,0
2022-11-14T17:32:14.427Z,0
2022-11-14T17:33:30.729Z,0
2022-11-14T17:34:47.018Z,0
2022-11-14T17:36:03.326Z,0
2022-11-14T17:37:19.612Z,0
2022-11-14T17:38:34.911Z,0
2022-11-14T17:39:51.218Z,0
2022-11-14T17:41:07.500Z,0
2022-11-14T17:42:23.803Z,0
2022-11-14T17:43:40.095Z,0
2022-11-14T17:44:56.385Z,0
2022-11-14T17:46:12.673Z,0
2022-11-14T17:47:28.972Z,0
2022-11-14T17:48:45.259Z,0
2022-11-14T17:50:01.547Z,0